CheckWX is a tool to help pilots better visualize weather data.  It is not intended as a substitute for an official pre-flight weather briefing.

04:42:44 UTC

KMQY TAF
Smyrna Airport
Smyrna, Tennessee, USA
KMQY 230405Z 2304/2324 00000KT P6SM SKC TEMPO 2305/2308 2SM BR FM230800 00000KT 2SM BR SKC FM231200 01003KT P6SM BKN040 FM231800 03008KT P6SM VCTS BKN040CB TEMPO 2320/2324 4SM -TSRA OVC030CB

Aug-23@
04:00 UTC

Aug-23 @ 04:00 UTC

Aug-23@
08:00 UTC

Aug-23 @ 08:00 UTC

KMQY 230405Z 2304/2324 00000KT P6SM SKC
Cloud Levels
  • Clear skies

Aug-23@
05:00 UTC

Aug-23 @ 05:00 UTC

Aug-23@
08:00 UTC

Aug-23 @ 08:00 UTC

TEMPO 2305/2308 2SM BR

Temporary

Temporary Changes expected for less than half the time period

Conditions
Mist

Aug-23@
08:00 UTC

Aug-23 @ 08:00 UTC

Aug-23@
12:00 UTC

Aug-23 @ 12:00 UTC

FM230800 00000KT 2SM BR SKC

From

From Standard forecast or significant change

Conditions
Mist
Cloud Levels
  • Clear skies

Aug-23@
12:00 UTC

Aug-23 @ 12:00 UTC

Aug-23@
18:00 UTC

Aug-23 @ 18:00 UTC

FM231200 01003KT P6SM BKN040

From

From Standard forecast or significant change

Wind
  • 010° at 3 KTS
Cloud Levels
  • Broken at 4,000' AGL

Aug-23@
18:00 UTC

Aug-23 @ 18:00 UTC

Aug-24@
00:00 UTC

Aug-24 @ 00:00 UTC

FM231800 03008KT P6SM VCTS BKN040CB

From

From Standard forecast or significant change

Wind
  • 030° at 8 KTS
Conditions
Area Thunderstorm
Cloud Levels
  • Broken at 4,000' AGL

Aug-23@
20:00 UTC

Aug-23 @ 20:00 UTC

Aug-24@
00:00 UTC

Aug-24 @ 00:00 UTC

TEMPO 2320/2324 4SM -TSRA OVC030CB

Temporary

Temporary Changes expected for less than half the time period

Conditions
Light Thunderstorm, Light Rain
Cloud Levels
  • Overcast at 3,000' AGL